Time;durP1;ratioP1;P1;durP2;ratioP2;P2;SDS_P1;SDS_P2;PMS_P1;PMS_P2;Temp;Humidity;BMP_temperature;BMP_pressure;BME280_temperature;BME280_humidity;BME280_pressure;Samples;Min_cycle;Max_cycle;Signal;HPM_P1;HPM_P2
2023/09/13 00:00:15;;;;;;;30.00;20.73;;;22.10;99.90;;;;;;5015338;28;20034;-53
2023/09/13 00:02:41;;;;;;;24.67;19.85;;;;;;;;;;5033230;28;20463;-50
2023/09/13 00:05:08;;;;;;;24.13;20.02;;;22.20;99.50;;;;;;5031537;28;20069;-53
2023/09/13 00:07:34;;;;;;;26.48;20.98;;;22.20;99.80;;;;;;5031729;28;20432;-51
2023/09/13 00:10:00;;;;;;;28.38;21.85;;;22.00;99.90;;;;;;5033771;28;20121;-52
2023/09/13 00:12:26;;;;;;;29.85;20.58;;;22.00;99.90;;;;;;5031524;28;20445;-52
2023/09/13 00:14:52;;;;;;;28.30;21.50;;;22.00;99.90;;;;;;5014456;28;20029;-52
2023/09/13 00:17:21;;;;;;;26.52;21.17;;;21.80;99.90;;;;;;5033349;28;20056;-51
2023/09/13 00:19:46;;;;;;;28.80;21.80;;;21.80;99.90;;;;;;5033873;28;20092;-53
2023/09/13 00:22:12;;;;;;;32.50;22.55;;;21.70;99.90;;;;;;5033196;28;20465;-50
2023/09/13 00:24:38;;;;;;;29.60;22.48;;;21.60;99.90;;;;;;5033155;28;20077;-51
2023/09/13 00:27:04;;;;;;;32.00;22.55;;;21.60;99.90;;;;;;5014706;28;20569;-53
2023/09/13 00:29:33;;;;;;;26.02;21.35;;;21.50;99.90;;;;;;5033204;28;20120;-51
2023/09/13 00:32:00;;;;;;;28.83;22.20;;;21.40;99.90;;;;;;5033146;28;20040;-52
2023/09/13 00:34:26;;;;;;;24.00;21.13;;;21.50;99.90;;;;;;5033163;28;20026;-53
2023/09/13 00:36:52;;;;;;;30.10;20.55;;;21.70;99.90;;;;;;5033039;28;20022;-53
2023/09/13 00:39:18;;;;;;;23.17;20.67;;;21.60;99.90;;;;;;5033394;28;20084;-52
2023/09/13 00:41:44;;;;;;;24.85;21.17;;;21.60;99.90;;;;;;4978614;28;20038;-50
2023/09/13 00:44:09;;;;;;;30.25;21.80;;;21.70;99.90;;;;;;5011134;28;20041;-50
2023/09/13 00:46:36;;;;;;;25.05;20.88;;;21.80;99.90;;;;;;4960362;28;20046;-51
2023/09/13 00:49:03;;;;;;;32.50;20.63;;;21.80;99.90;;;;;;4991523;28;20558;-53
2023/09/13 00:51:29;;;;;;;25.98;21.05;;;21.70;99.90;;;;;;4991516;28;20442;-53
2023/09/13 00:53:56;;;;;;;31.92;21.42;;;;;;;;;;4991583;28;20046;-50
2023/09/13 00:56:22;;;;;;;24.65;19.83;;;21.20;99.90;;;;;;4975218;28;20398;-50
2023/09/13 00:58:48;;;;;;;25.10;18.58;;;21.30;99.90;;;;;;4991784;28;20077;-52
2023/09/13 01:01:15;;;;;;;24.70;18.83;;;;;;;;;;4991414;28;20035;-51
2023/09/13 01:03:42;;;;;;;25.70;18.55;;;21.10;99.90;;;;;;4991506;28;20038;-52
2023/09/13 01:06:09;;;;;;;27.35;19.90;;;21.10;99.90;;;;;;4991355;28;20035;-53
2023/09/13 01:08:39;;;;;;;22.50;18.10;;;21.20;99.90;;;;;;4991481;28;20035;-53
2023/09/13 01:11:06;;;;;;;23.35;18.55;;;21.40;99.90;;;;;;4991250;28;20125;-50
2023/09/13 01:13:32;;;;;;;27.55;19.48;;;21.40;99.90;;;;;;5028173;28;20477;-51
2023/09/13 01:16:31;;;;;;;21.42;19.00;;;21.50;99.90;;;;;;5037002;28;20108;-50
2023/09/13 01:19:38;;;;;;;22.55;19.20;;;21.50;99.90;;;;;;5036748;28;20021;-52
2023/09/13 01:22:30;;;;;;;20.80;18.10;;;21.60;99.90;;;;;;5036540;28;20029;-50
2023/09/13 01:25:41;;;;;;;23.50;17.73;;;21.50;99.90;;;;;;5034761;28;20048;-52
2023/09/13 01:28:25;;;;;;;21.65;17.48;;;21.40;99.90;;;;;;5034025;28;20087;-52
2023/09/13 01:30:51;;;;;;;21.48;17.80;;;21.40;99.90;;;;;;5036708;28;20385;-52
2023/09/13 01:33:17;;;;;;;19.83;16.92;;;21.50;99.90;;;;;;5036095;28;20025;-51
2023/09/13 01:35:43;;;;;;;23.92;17.45;;;21.40;99.90;;;;;;5034453;28;20148;-52
2023/09/13 01:38:09;;;;;;;26.05;18.20;;;21.30;99.90;;;;;;5036296;28;20033;-51
2023/09/13 01:40:37;;;;;;;25.80;17.02;;;21.40;99.90;;;;;;5036185;28;20029;-50
2023/09/13 01:43:04;;;;;;;25.77;17.35;;;21.50;99.90;;;;;;5036199;28;20022;-53
2023/09/13 01:45:34;;;;;;;19.75;16.35;;;21.50;99.90;;;;;;5035945;28;20057;-50
2023/09/13 01:48:02;;;;;;;25.75;16.35;;;21.50;99.90;;;;;;5036416;28;20034;-51
2023/09/13 01:50:29;;;;;;;22.15;15.10;;;21.50;99.90;;;;;;5036378;28;20044;-51
2023/09/13 01:52:55;;;;;;;20.75;15.50;;;21.50;99.90;;;;;;5035905;28;20108;-50
2023/09/13 01:55:20;;;;;;;18.40;15.45;;;21.50;99.90;;;;;;5035742;28;20056;-53
2023/09/13 01:57:46;;;;;;;20.05;14.80;;;21.40;99.90;;;;;;5035887;28;20469;-50
2023/09/13 02:00:12;;;;;;;26.92;16.23;;;21.50;99.90;;;;;;5036199;28;20026;-52
2023/09/13 02:02:38;;;;;;;22.08;14.13;;;21.50;99.90;;;;;;5001109;28;20041;-52
2023/09/13 02:05:04;;;;;;;18.10;13.95;;;21.50;99.90;;;;;;5035957;28;20091;-50
2023/09/13 02:07:30;;;;;;;18.80;15.60;;;21.50;99.90;;;;;;5033655;28;20045;-53
2023/09/13 02:09:56;;;;;;;17.52;13.93;;;21.50;99.90;;;;;;5033578;28;20037;-50
2023/09/13 02:12:22;;;;;;;21.85;14.07;;;21.40;99.90;;;;;;5036224;28;20029;-53
2023/09/13 02:14:48;;;;;;;16.88;14.13;;;21.40;99.90;;;;;;5035858;28;20068;-53
2023/09/13 02:17:14;;;;;;;21.85;14.13;;;21.30;99.90;;;;;;5035920;28;20370;-50
2023/09/13 02:19:40;;;;;;;17.20;12.90;;;21.20;99.90;;;;;;5035302;28;20032;-52
2023/09/13 02:22:05;;;;;;;19.00;14.25;;;21.20;99.90;;;;;;5033599;28;20485;-51
2023/09/13 02:24:32;;;;;;;19.52;13.75;;;21.20;99.90;;;;;;5016831;28;20037;-52
2023/09/13 02:26:59;;;;;;;16.98;13.27;;;21.20;99.90;;;;;;5035258;28;20057;-50
2023/09/13 02:29:26;;;;;;;21.13;14.18;;;21.30;99.90;;;;;;5035157;28;20033;-52
2023/09/13 02:31:52;;;;;;;17.27;13.57;;;21.30;99.90;;;;;;5035448;28;20052;-53
2023/09/13 02:34:17;;;;;;;15.70;13.30;;;21.30;99.90;;;;;;5033281;28;20037;-50
2023/09/13 02:36:45;;;;;;;18.58;13.73;;;21.40;99.90;;;;;;5000381;28;20037;-51
2023/09/13 02:39:34;;;;;;;27.77;14.38;;;21.40;99.90;;;;;;5035268;28;20112;-52
2023/09/13 02:42:02;;;;;;;18.45;13.55;;;21.40;99.90;;;;;;5000290;28;20060;-51
2023/09/13 02:44:30;;;;;;;16.63;14.93;;;;;;;;;;5034904;28;20026;-52
2023/09/13 02:46:56;;;;;;;20.60;14.27;;;21.00;99.90;;;;;;5035261;28;20048;-53
2023/09/13 02:49:22;;;;;;;19.20;14.55;;;20.90;99.90;;;;;;5034845;28;20072;-51
2023/09/13 02:51:48;;;;;;;20.33;14.43;;;;;;;;;;5032963;28;20037;-52
2023/09/13 02:54:14;;;;;;;16.95;15.20;;;20.30;99.90;;;;;;5034726;28;20029;-50
2023/09/13 02:56:40;;;;;;;21.85;16.33;;;20.10;99.90;;;;;;5034945;28;20026;-50
2023/09/13 02:59:06;;;;;;;19.40;17.05;;;;;;;;;;5034884;28;20536;-50
2023/09/13 03:01:32;;;;;;;20.30;18.05;;;;;;;;;;5034757;28;20025;-50
2023/09/13 03:03:58;;;;;;;21.33;16.92;;;;;;;;;;5032759;28;20033;-51
2023/09/13 03:06:24;;;;;;;20.40;16.70;;;;;;;;;;5034683;28;20060;-53
2023/09/13 03:08:50;;;;;;;21.02;17.85;;;;;;;;;;5034790;28;20028;-50
2023/09/13 03:11:18;;;;;;;19.98;17.13;;;18.80;99.90;;;;;;5033972;28;20033;-51
2023/09/13 03:13:44;;;;;;;18.67;16.30;;;;;;;;;;5033930;28;20045;-53
2023/09/13 03:16:18;;;;;;;22.30;17.52;;;;;;;;;;5016083;28;20073;-50
2023/09/13 03:18:45;;;;;;;23.00;16.80;;;18.70;99.90;;;;;;5034242;28;20393;-52
2023/09/13 03:21:12;;;;;;;19.20;16.90;;;;;;;;;;5034648;28;20025;-55
2023/09/13 03:23:43;;;;;;;21.77;17.58;;;;;;;;;;5032210;28;20041;-52
2023/09/13 03:26:13;;;;;;;26.05;17.40;;;;;;;;;;5032531;28;20434;-54
2023/09/13 03:28:39;;;;;;;20.23;17.20;;;;;;;;;;5034053;28;20029;-52
2023/09/13 03:31:10;;;;;;;22.55;17.08;;;18.30;99.90;;;;;;5032213;28;20077;-52
2023/09/13 03:33:37;;;;;;;26.40;16.33;;;;;;;;;;5031715;28;20041;-53
2023/09/13 03:36:03;;;;;;;24.45;17.13;;;;;;;;;;5011548;28;20042;-54
2023/09/13 03:38:29;;;;;;;22.60;15.65;;;;;;;;;;4956690;28;20074;-55
2023/09/13 03:40:56;;;;;;;22.85;16.13;;;;;;;;;;4973078;28;20074;-53
2023/09/13 03:43:22;;;;;;;19.70;15.05;;;;;;;;;;4973066;28;20125;-54
2023/09/13 03:45:49;;;;;;;19.45;15.68;;;;;;;;;;4972831;28;20097;-54
2023/09/13 03:48:15;;;;;;;18.95;15.10;;;;;;;;;;4924985;28;20146;-52
2023/09/13 03:50:42;;;;;;;23.08;15.50;;;;;;;;;;4972725;28;20034;-54
2023/09/13 03:53:08;;;;;;;23.35;15.55;;;;;;;;;;4940579;28;20042;-51
2023/09/13 03:55:34;;;;;;;20.98;15.82;;;;;;;;;;4972897;28;20058;-51
2023/09/13 03:58:00;;;;;;;17.27;14.55;;;18.20;99.90;;;;;;4972733;28;20051;-51
2023/09/13 04:00:25;;;;;;;20.35;14.40;;;18.50;99.90;;;;;;4972633;28;20043;-53
2023/09/13 04:02:52;;;;;;;23.10;15.50;;;;;;;;;;4972801;28;20039;-51
2023/09/13 04:05:17;;;;;;;25.65;15.32;;;18.40;99.90;;;;;;4957380;28;20039;-50
2023/09/13 04:07:43;;;;;;;24.58;15.05;;;18.40;99.90;;;;;;4953391;29;20130;-51
2023/09/13 04:10:09;;;;;;;20.83;15.18;;;18.70;99.90;;;;;;4999393;28;20053;-52
2023/09/13 04:12:35;;;;;;;17.00;13.00;;;18.60;99.90;;;;;;5014311;28;20056;-52
2023/09/13 04:15:00;;;;;;;19.17;14.77;;;18.70;99.90;;;;;;5015134;28;20048;-52
2023/09/13 04:17:26;;;;;;;20.60;15.50;;;18.90;99.90;;;;;;5033796;28;20030;-50
2023/09/13 04:19:52;;;;;;;22.77;15.20;;;;;;;;;;5033484;28;20485;-50
2023/09/13 04:22:18;;;;;;;23.65;14.63;;;18.90;99.90;;;;;;5033290;28;20029;-51
2023/09/13 04:24:44;;;;;;;21.73;14.95;;;19.20;99.90;;;;;;5033641;28;20045;-51
2023/09/13 04:27:09;;;;;;;26.75;14.00;;;19.40;99.90;;;;;;5033117;28;20080;-49
2023/09/13 04:29:39;;;;;;;20.20;14.45;;;19.50;99.90;;;;;;5033273;28;20033;-52
2023/09/13 04:32:06;;;;;;;21.80;13.95;;;19.60;99.90;;;;;;5033063;28;20049;-51
2023/09/13 04:34:36;;;;;;;22.15;14.25;;;19.60;99.90;;;;;;5033169;28;20458;-51
2023/09/13 04:37:03;;;;;;;31.88;15.70;;;19.80;99.90;;;;;;5033583;28;20083;-52
2023/09/13 04:39:31;;;;;;;27.63;13.88;;;20.00;99.90;;;;;;4998462;28;20042;-51
2023/09/13 04:41:58;;;;;;;28.55;14.68;;;;;;;;;;5031458;28;20393;-51
2023/09/13 04:44:24;;;;;;;17.30;14.45;;;;;;;;;;5031863;28;20452;-52
2023/09/13 04:46:50;;;;;;;22.85;14.25;;;;;;;;;;5033179;28;20041;-51
2023/09/13 04:49:16;;;;;;;17.30;14.10;;;20.80;99.90;;;;;;5035510;28;20033;-50
2023/09/13 04:51:42;;;;;;;19.17;14.32;;;19.80;99.90;;;;;;5017786;28;20048;-52
2023/09/13 04:54:07;;;;;;;25.58;14.70;;;19.80;99.90;;;;;;5017910;28;20032;-52
2023/09/13 04:56:33;;;;;;;22.48;14.38;;;;;;;;;;5036501;28;20056;-52
2023/09/13 04:58:59;;;;;;;19.00;14.30;;;20.20;99.90;;;;;;5035966;28;20029;-52
2023/09/13 05:01:25;;;;;;;17.67;13.48;;;;;;;;;;5036214;28;20396;-51
2023/09/13 05:03:52;;;;;;;20.17;15.07;;;20.10;99.90;;;;;;5035559;28;20030;-50
2023/09/13 05:06:18;;;;;;;22.40;15.05;;;20.20;99.90;;;;;;5036633;28;20095;-52
2023/09/13 05:08:44;;;;;;;22.92;15.05;;;20.40;99.90;;;;;;5027244;28;20099;-51
2023/09/13 05:11:10;;;;;;;23.17;16.05;;;20.20;99.90;;;;;;5036567;28;20045;-50
2023/09/13 05:13:39;;;;;;;28.38;14.25;;;19.90;99.90;;;;;;5034373;28;20501;-52
2023/09/13 05:16:05;;;;;;;22.80;14.05;;;19.70;99.90;;;;;;5035935;28;20484;-49
2023/09/13 05:18:33;;;;;;;19.10;13.93;;;19.40;99.90;;;;;;5017550;28;20088;-49
2023/09/13 05:20:59;;;;;;;33.55;14.30;;;19.60;99.90;;;;;;5036296;28;20033;-51
2023/09/13 05:23:25;;;;;;;19.80;13.98;;;19.50;99.90;;;;;;5033772;28;20041;-50
2023/09/13 05:25:52;;;;;;;17.98;13.75;;;19.40;99.90;;;;;;5035691;28;20029;-49
2023/09/13 05:28:18;;;;;;;20.90;14.25;;;19.60;99.90;;;;;;5036473;28;20041;-51
2023/09/13 05:30:48;;;;;;;18.67;14.35;;;19.80;99.90;;;;;;5036215;28;20045;-51
2023/09/13 05:33:15;;;;;;;18.50;14.02;;;20.20;99.90;;;;;;5036184;28;20037;-50
2023/09/13 05:35:40;;;;;;;21.83;13.90;;;20.40;99.90;;;;;;5036512;28;20037;-51
2023/09/13 05:38:06;;;;;;;16.58;12.57;;;20.60;99.90;;;;;;5034479;28;20397;-49
2023/09/13 05:40:32;;;;;;;18.27;13.82;;;21.10;99.90;;;;;;5036214;28;20037;-49
2023/09/13 05:42:58;;;;;;;20.42;12.52;;;21.40;99.90;;;;;;5036318;28;20025;-49
2023/09/13 05:45:24;;;;;;;14.40;12.90;;;21.50;99.90;;;;;;5036093;28;20033;-50
2023/09/13 05:47:50;;;;;;;24.15;14.13;;;;;;;;;;5035933;28;20504;-50
2023/09/13 05:50:16;;;;;;;18.80;12.32;;;;;;;;;;5036167;28;20038;-49
2023/09/13 05:52:43;;;;;;;15.63;13.38;;;;;;;;;;5036082;28;20110;-49
2023/09/13 05:55:09;;;;;;;20.35;13.23;;;;;;;;;;5035844;28;20083;-49
2023/09/13 05:57:35;;;;;;;13.85;12.38;;;;;;;;;;5035990;28;20084;-50
2023/09/13 06:00:02;;;;;;;19.40;12.88;;;;;;;;;;5035664;28;20021;-49
2023/09/13 06:02:27;;;;;;;16.67;13.30;;;22.90;99.90;;;;;;5035907;28;20032;-51
2023/09/13 06:04:53;;;;;;;18.65;13.57;;;;;;;;;;5035787;28;20025;-51
2023/09/13 06:07:19;;;;;;;15.65;12.77;;;23.00;99.90;;;;;;5035875;28;20022;-50
2023/09/13 06:09:45;;;;;;;17.33;12.38;;;23.20;99.90;;;;;;5033980;28;20393;-51
2023/09/13 06:12:11;;;;;;;19.70;13.73;;;23.40;99.90;;;;;;5036150;28;20492;-49
2023/09/13 06:14:37;;;;;;;18.75;13.10;;;23.50;99.90;;;;;;5035584;28;20030;-49
2023/09/13 06:17:02;;;;;;;19.50;13.07;;;24.20;99.90;;;;;;5035669;28;20021;-51
2023/09/13 06:19:28;;;;;;;22.45;12.65;;;24.00;99.90;;;;;;5033764;28;20507;-49
2023/09/13 06:21:55;;;;;;;18.30;13.27;;;23.90;99.90;;;;;;5033777;28;20065;-50
2023/09/13 06:24:20;;;;;;;28.95;14.35;;;23.90;99.90;;;;;;5035720;28;20032;-51
2023/09/13 06:26:46;;;;;;;22.17;13.90;;;24.20;99.90;;;;;;5016907;28;20045;-51
2023/09/13 06:29:12;;;;;;;19.42;13.13;;;24.40;99.90;;;;;;5035233;28;20140;-50
2023/09/13 06:31:38;;;;;;;29.42;13.80;;;24.50;99.90;;;;;;5033469;28;20073;-49
2023/09/13 06:34:04;;;;;;;25.33;14.98;;;;;;;;;;5035256;28;20060;-49
2023/09/13 06:36:30;;;;;;;25.58;13.90;;;24.80;99.90;;;;;;5017154;28;20095;-51
2023/09/13 06:38:56;;;;;;;24.20;14.43;;;;;;;;;;5035191;28;20424;-50
2023/09/13 06:41:22;;;;;;;24.35;15.45;;;;;;;;;;5034968;28;20029;-53
2023/09/13 06:43:48;;;;;;;28.15;18.27;;;25.90;99.90;;;;;;5035228;28;20033;-53
2023/09/13 06:46:14;;;;;;;39.88;26.23;;;;;;;;;;5033241;28;20041;-50
2023/09/13 06:48:40;;;;;;;30.10;22.83;;;;;;;;;;5034966;28;20025;-52
2023/09/13 06:51:05;;;;;;;23.92;17.55;;;26.20;99.90;;;;;;5035323;28;20110;-52
2023/09/13 06:53:31;;;;;;;23.52;14.57;;;25.90;99.90;;;;;;5016626;28;20481;-52
2023/09/13 06:55:57;;;;;;;15.57;11.65;;;;;;;;;;5035134;28;20465;-51
2023/09/13 06:58:23;;;;;;;17.23;11.23;;;;;;;;;;5034936;28;20065;-48
2023/09/13 07:00:49;;;;;;;17.45;11.30;;;26.20;99.30;;;;;;5032925;28;20175;-48
2023/09/13 07:03:15;;;;;;;15.63;11.95;;;;;;;;;;5034911;28;20482;-49
2023/09/13 07:05:42;;;;;;;18.85;11.63;;;26.50;99.90;;;;;;5034651;28;20036;-48
2023/09/13 07:08:09;;;;;;;21.30;12.18;;;;;;;;;;5032711;28;20084;-51
2023/09/13 07:10:35;;;;;;;17.10;12.13;;;;;;;;;;5033729;28;20037;-51
2023/09/13 07:13:02;;;;;;;21.45;11.32;;;26.70;99.90;;;;;;5032656;28;20041;-52
2023/09/13 07:15:29;;;;;;;14.45;10.40;;;;;;;;;;5034859;28;20443;-51
2023/09/13 07:17:55;;;;;;;16.92;11.02;;;;;;;;;;5034572;28;20067;-51
2023/09/13 07:20:21;;;;;;;16.25;11.30;;;27.00;99.90;;;;;;5031524;28;20450;-53
2023/09/13 07:22:47;;;;;;;14.15;10.73;;;;;;;;;;5034300;28;20067;-53
2023/09/13 07:25:13;;;;;;;17.65;11.23;;;;;;;;;;5034204;28;20017;-52
2023/09/13 07:27:39;;;;;;;18.50;11.30;;;;;;;;;;5032314;28;20050;-52
2023/09/13 07:30:10;;;;;;;22.58;12.20;;;28.00;99.90;;;;;;5032341;28;20128;-51
2023/09/13 07:32:37;;;;;;;14.80;11.35;;;28.10;99.90;;;;;;5032476;28;20045;-52
2023/09/13 07:35:03;;;;;;;24.58;12.23;;;;;;;;;;5034567;28;20076;-52
2023/09/13 07:37:30;;;;;;;21.80;11.60;;;;;;;;;;4980746;28;20041;-52
2023/09/13 07:39:57;;;;;;;19.35;14.10;;;28.00;97.70;;;;;;5033608;28;20037;-52
2023/09/13 07:42:23;;;;;;;18.48;12.88;;;;;;;;;;5031080;28;20073;-52
2023/09/13 07:44:49;;;;;;;20.48;11.23;;;28.30;99.90;;;;;;5032686;28;20041;-51
2023/09/13 07:47:15;;;;;;;20.17;12.32;;;28.40;99.90;;;;;;4998736;28;20038;-51
2023/09/13 07:49:40;;;;;;;12.82;9.77;;;28.40;98.50;;;;;;5031500;28;20034;-51
2023/09/13 07:52:06;;;;;;;21.30;11.90;;;28.50;97.80;;;;;;5033478;28;20064;-53
2023/09/13 07:54:32;;;;;;;14.23;11.07;;;;;;;;;;4998661;28;20033;-50
2023/09/13 07:56:58;;;;;;;16.88;11.85;;;;;;;;;;5033854;28;20064;-50
2023/09/13 07:59:25;;;;;;;17.67;10.73;;;;;;;;;;5034272;28;20032;-52
2023/09/13 08:01:51;;;;;;;14.73;11.48;;;29.60;99.90;;;;;;5031960;28;20485;-50
2023/09/13 08:04:18;;;;;;;20.60;12.13;;;29.70;99.90;;;;;;5031675;28;20084;-52
2023/09/13 08:06:44;;;;;;;20.98;11.88;;;29.40;99.90;;;;;;5033527;28;20385;-52
2023/09/13 08:09:14;;;;;;;19.15;11.75;;;29.30;99.90;;;;;;5033447;28;20030;-52
2023/09/13 08:11:40;;;;;;;22.10;11.95;;;29.40;99.90;;;;;;5033539;28;20073;-50
2023/09/13 08:14:05;;;;;;;21.77;11.45;;;29.30;96.50;;;;;;5031818;28;20072;-53
2023/09/13 08:16:31;;;;;;;16.08;10.07;;;29.50;96.60;;;;;;5033384;28;20030;-50
2023/09/13 08:18:57;;;;;;;17.13;9.90;;;;;;;;;;5015239;28;20091;-52
2023/09/13 08:21:23;;;;;;;18.33;9.27;;;30.00;99.90;;;;;;5033822;28;20365;-52
2023/09/13 08:23:49;;;;;;;13.63;9.32;;;30.30;97.30;;;;;;5033809;28;20036;-51
2023/09/13 08:26:16;;;;;;;32.97;10.77;;;30.30;98.20;;;;;;5031735;28;20382;-52
2023/09/13 08:28:42;;;;;;;16.17;9.45;;;;;;;;;;5033288;28;20064;-52
2023/09/13 08:31:08;;;;;;;12.75;9.30;;;;;;;;;;5033548;28;20029;-50
2023/09/13 08:33:34;;;;;;;16.77;8.98;;;31.10;94.90;;;;;;5033568;28;20053;-52
2023/09/13 08:36:01;;;;;;;13.57;8.30;;;;;;;;;;5031483;28;20437;-51
2023/09/13 08:38:27;;;;;;;14.68;8.93;;;31.40;93.60;;;;;;5031392;28;20038;-50
2023/09/13 08:40:54;;;;;;;20.30;9.13;;;31.20;93.50;;;;;;5033438;28;20428;-50
2023/09/13 08:43:21;;;;;;;17.73;8.48;;;;;;;;;;5033505;28;20048;-52
2023/09/13 08:45:48;;;;;;;14.90;9.32;;;32.10;99.90;;;;;;5033144;28;20061;-52
2023/09/13 08:48:14;;;;;;;15.40;8.35;;;;;;;;;;5033036;28;20052;-53
2023/09/13 08:50:41;;;;;;;15.95;8.25;;;;;;;;;;5032939;28;20068;-52
2023/09/13 08:53:10;;;;;;;13.30;7.70;;;32.30;99.90;;;;;;5033231;28;20450;-51
2023/09/13 08:55:38;;;;;;;23.63;8.00;;;32.40;99.90;;;;;;5032712;28;20029;-52
2023/09/13 08:58:04;;;;;;;14.57;7.97;;;;;;;;;;5032188;28;20063;-55
2023/09/13 09:00:37;;;;;;;15.68;8.35;;;;;;;;;;5032800;28;20017;-58
2023/09/13 09:03:05;;;;;;;17.80;7.55;;;;;;;;;;5031788;28;20029;-59
2023/09/13 09:05:31;;;;;;;18.60;7.63;;;32.50;92.70;;;;;;4998298;28;20041;-53
2023/09/13 09:07:59;;;;;;;11.55;7.05;;;32.60;92.20;;;;;;5047812;28;20065;-56
2023/09/13 09:10:25;;;;;;;20.25;8.20;;;;;;;;;;5032387;28;20393;-59
2023/09/13 09:12:55;;;;;;;13.48;6.88;;;33.10;91.80;;;;;;5032857;28;20040;-59
2023/09/13 09:15:23;;;;;;;17.17;7.47;;;;;;;;;;5032748;28;20115;-54
2023/09/13 09:17:51;;;;;;;18.95;7.05;;;33.20;94.20;;;;;;5033010;28;20492;-67
2023/09/13 09:20:18;;;;;;;19.48;8.18;;;;;;;;;;5030726;28;20044;-68
2023/09/13 09:22:47;;;;;;;16.75;7.40;;;33.60;99.90;;;;;;5030419;28;20099;-63
2023/09/13 09:25:13;;;;;;;15.90;8.32;;;33.50;91.20;;;;;;5014323;28;20065;-58
2023/09/13 09:27:40;;;;;;;18.55;7.30;;;33.50;91.30;;;;;;5030061;28;20054;-56
2023/09/13 09:30:14;;;;;;;11.13;6.30;;;33.60;91.20;;;;;;5032384;28;20038;-57
2023/09/13 09:32:40;;;;;;;19.70;7.57;;;;;;;;;;5027664;28;20054;-61
2023/09/13 09:35:06;;;;;;;11.32;7.05;;;35.10;96.90;;;;;;5035130;28;20037;-63
2023/09/13 09:37:34;;;;;;;14.55;7.00;;;34.80;97.80;;;;;;5001599;28;20045;-63
2023/09/13 09:40:00;;;;;;;14.00;7.22;;;34.70;90.30;;;;;;5035712;28;20037;-58
2023/09/13 09:42:29;;;;;;;13.73;8.13;;;35.00;92.00;;;;;;5036005;28;20079;-62
2023/09/13 09:44:55;;;;;;;10.90;6.88;;;;;;;;;;5034085;28;20055;-56
2023/09/13 09:47:21;;;;;;;11.48;6.60;;;35.20;95.70;;;;;;5031238;28;20373;-58
2023/09/13 09:49:48;;;;;;;12.70;7.43;;;;;;;;;;5035821;28;20032;-60
2023/09/13 09:52:15;;;;;;;16.45;7.30;;;35.80;90.80;;;;;;5036066;28;20580;-59
2023/09/13 09:54:47;;;;;;;16.88;6.78;;;35.80;91.20;;;;;;5035845;28;20038;-60
2023/09/13 09:57:21;;;;;;;17.17;7.28;;;;;;;;;;5012689;28;20401;-62
2023/09/13 09:59:47;;;;;;;13.80;7.63;;;36.50;85.80;;;;;;5013125;28;20061;-65
2023/09/13 10:02:13;;;;;;;9.95;7.45;;;35.80;93.30;;;;;;5013421;28;20529;-59
2023/09/13 10:04:50;;;;;;;11.38;6.78;;;35.60;87.10;;;;;;5013787;28;20025;-56
2023/09/13 10:07:16;;;;;;;11.57;6.70;;;36.00;86.00;;;;;;5012524;28;20053;-55
2023/09/13 10:09:46;;;;;;;17.52;7.05;;;36.50;85.80;;;;;;5013717;28;20030;-66
2023/09/13 10:12:14;;;;;;;15.43;7.63;;;36.20;84.30;;;;;;5013939;28;20046;-61
2023/09/13 10:14:41;;;;;;;8.98;7.13;;;;;;;;;;5013627;28;20045;-64
2023/09/13 10:17:09;;;;;;;20.00;7.28;;;36.90;83.70;;;;;;5013621;28;20042;-57
2023/09/13 10:19:36;;;;;;;14.93;13.43;;;;;;;;;;5013254;28;20106;-60
2023/09/13 10:22:02;;;;;;;10.27;6.55;;;;;;;;;;5013660;28;20126;-62
2023/09/13 10:24:31;;;;;;;10.82;7.53;;;;;;;;;;4997332;28;20460;-58
2023/09/13 10:26:58;;;;;;;11.77;7.43;;;;;;;;;;5013350;28;20058;-58
2023/09/13 10:29:31;;;;;;;16.67;7.15;;;37.50;99.90;;;;;;5050253;28;20033;-63
2023/09/13 10:32:05;;;;;;;14.07;7.68;;;37.70;83.20;;;;;;5035485;28;20041;-59
2023/09/13 10:34:34;;;;;;;11.77;7.88;;;37.30;82.50;;;;;;5034887;28;20112;-60
2023/09/13 10:37:12;;;;;;;11.20;7.32;;;36.80;85.30;;;;;;5033575;28;20037;-56
2023/09/13 10:39:51;;;;;;;12.27;6.18;;;37.30;84.40;;;;;;5035372;28;20040;-61
2023/09/13 10:42:18;;;;;;;15.23;6.25;;;37.50;85.40;;;;;;5035146;28;20030;-56
2023/09/13 10:44:46;;;;;;;11.02;6.85;;;37.20;83.20;;;;;;5034701;28;20544;-57
2023/09/13 10:47:12;;;;;;;17.13;6.90;;;37.10;82.40;;;;;;5034362;28;20025;-58
2023/09/13 10:49:38;;;;;;;12.27;6.90;;;37.50;81.70;;;;;;5034472;28;20032;-59
2023/09/13 10:52:05;;;;;;;13.98;6.55;;;;;;;;;;5035488;28;20064;-60
2023/09/13 10:54:32;;;;;;;10.70;6.65;;;37.80;81.20;;;;;;5035175;28;20032;-60
2023/09/13 10:56:58;;;;;;;12.80;6.05;;;37.40;81.40;;;;;;5034797;28;20104;-60
2023/09/13 10:59:25;;;;;;;10.50;7.07;;;36.80;82.20;;;;;;5034783;28;20469;-55
2023/09/13 11:01:51;;;;;;;12.15;6.72;;;36.80;82.20;;;;;;5035200;28;20021;-59
2023/09/13 11:04:19;;;;;;;10.07;6.82;;;37.30;81.90;;;;;;5033319;28;20087;-51
2023/09/13 11:06:48;;;;;;;10.82;6.85;;;37.90;82.00;;;;;;5034551;28;20033;-57
2023/09/13 11:09:15;;;;;;;13.63;7.07;;;38.00;81.70;;;;;;5034696;28;20029;-55
2023/09/13 11:11:49;;;;;;;9.20;6.22;;;38.20;82.20;;;;;;5034501;28;20482;-60
2023/09/13 11:14:19;;;;;;;13.27;7.50;;;38.00;81.30;;;;;;5016520;28;20087;-57
2023/09/13 11:16:47;;;;;;;9.53;6.70;;;37.70;80.70;;;;;;5034418;28;20038;-62
2023/09/13 11:19:16;;;;;;;12.18;8.05;;;37.40;81.60;;;;;;5034456;28;20381;-58
2023/09/13 11:21:50;;;;;;;9.43;6.90;;;37.60;82.50;;;;;;5034285;28;20032;-61
2023/09/13 11:24:41;;;;;;;10.77;6.63;;;37.50;82.00;;;;;;5034490;28;20033;-65
2023/09/13 11:27:17;;;;;;;10.93;6.03;;;37.90;81.10;;;;;;5034182;28;20051;-56
2023/09/13 11:29:50;;;;;;;11.05;6.43;;;38.20;79.40;;;;;;5034442;28;20627;-61
2023/09/13 11:32:25;;;;;;;17.83;7.28;;;38.10;79.70;;;;;;5034227;28;20048;-59
2023/09/13 11:35:01;;;;;;;10.27;8.07;;;38.30;80.90;;;;;;5033973;28;20109;-56
2023/09/13 11:37:28;;;;;;;10.90;7.40;;;;;;;;;;5033993;28;20034;-62
2023/09/13 11:39:55;;;;;;;8.38;7.07;;;37.70;79.60;;;;;;5033592;28;20075;-57
2023/09/13 11:42:30;;;;;;;11.73;7.50;;;37.90;79.00;;;;;;5034298;28;20025;-56
2023/09/13 11:44:57;;;;;;;12.23;7.07;;;37.80;79.10;;;;;;5034200;28;20468;-58
2023/09/13 11:47:22;;;;;;;17.98;7.57;;;38.10;79.40;;;;;;5048906;28;20065;-58
2023/09/13 11:49:52;;;;;;;10.20;7.30;;;;;;;;;;5033681;28;20099;-62
2023/09/13 11:52:19;;;;;;;10.75;7.05;;;37.90;77.40;;;;;;5033973;28;20041;-62
2023/09/13 11:54:57;;;;;;;12.25;7.00;;;37.90;79.00;;;;;;5034206;28;20022;-61
2023/09/13 11:57:23;;;;;;;10.82;8.02;;;38.30;78.90;;;;;;5033620;28;20481;-62
2023/09/13 11:59:55;;;;;;;13.52;7.03;;;38.50;78.60;;;;;;5033638;28;20018;-61
2023/09/13 12:02:22;;;;;;;9.27;6.82;;;37.90;78.40;;;;;;5033821;28;20116;-62
2023/09/13 12:04:50;;;;;;;10.18;7.35;;;38.30;78.30;;;;;;5048363;28;20037;-61
2023/09/13 12:07:16;;;;;;;9.23;6.82;;;;;;;;;;5034078;28;20042;-58
2023/09/13 12:09:55;;;;;;;8.88;6.43;;;38.40;80.20;;;;;;5031687;28;20133;-55
2023/09/13 12:12:22;;;;;;;11.95;7.38;;;;;;;;;;5033849;28;20041;-63
2023/09/13 12:14:49;;;;;;;9.45;7.25;;;38.60;77.00;;;;;;5033591;28;20037;-58
2023/09/13 12:17:15;;;;;;;9.40;7.40;;;;;;;;;;5033888;28;20068;-61
2023/09/13 12:19:40;;;;;;;14.35;7.72;;;37.80;90.80;;;;;;5033417;28;20021;-58
2023/09/13 12:22:11;;;;;;;11.35;7.93;;;38.30;91.10;;;;;;5033193;28;20018;-60
2023/09/13 12:24:37;;;;;;;13.13;7.43;;;38.50;81.90;;;;;;5033567;28;20041;-58
2023/09/13 12:27:04;;;;;;;8.57;6.50;;;;;;;;;;5033148;28;20094;-61
2023/09/13 12:29:29;;;;;;;10.23;6.35;;;38.80;76.10;;;;;;5033404;28;20087;-55
2023/09/13 12:31:57;;;;;;;10.95;7.30;;;39.00;77.20;;;;;;5033144;28;20041;-63
2023/09/13 12:34:23;;;;;;;9.23;6.60;;;39.10;78.00;;;;;;5031689;28;20033;-55
2023/09/13 12:36:49;;;;;;;13.45;7.50;;;38.80;78.80;;;;;;5010830;28;20041;-57
2023/09/13 12:39:15;;;;;;;8.60;6.63;;;38.60;76.70;;;;;;5032093;28;20026;-62
2023/09/13 12:41:42;;;;;;;12.75;7.10;;;;;;;;;;5028337;28;20377;-57
2023/09/13 12:44:10;;;;;;;9.25;6.93;;;37.70;76.30;;;;;;5032070;28;20449;-57
2023/09/13 12:46:38;;;;;;;12.25;7.00;;;38.00;76.20;;;;;;5009994;28;20159;-56
2023/09/13 12:49:03;;;;;;;11.82;7.50;;;38.30;76.90;;;;;;5011016;28;20438;-56
2023/09/13 12:51:33;;;;;;;15.38;6.97;;;38.00;76.20;;;;;;4978611;28;20089;-60
2023/09/13 12:54:02;;;;;;;9.05;6.75;;;37.70;75.90;;;;;;5011200;28;20033;-56
2023/09/13 12:56:32;;;;;;;10.93;6.07;;;38.10;76.60;;;;;;5011232;28;20109;-61
2023/09/13 12:59:00;;;;;;;7.70;5.95;;;38.10;75.30;;;;;;5011314;28;20029;-60
2023/09/13 13:01:31;;;;;;;9.38;5.85;;;38.40;75.60;;;;;;5011201;28;20037;-63